Time;durP1;ratioP1;P1;durP2;ratioP2;P2;SDS_P1;SDS_P2;PMS_P1;PMS_P2;Temp;Humidity;BMP_temperature;BMP_pressure;BME280_temperature;BME280_humidity;BME280_pressure;Samples;Min_cycle;Max_cycle;Signal;HPM_P1;HPM_P2
2022/05/02 00:01:14;;;;;;;47.22;12.63;;;;;;;;;;4980135;28;20094;-80
2022/05/02 00:03:41;;;;;;;17.95;11.98;;;;;;;;;;4965688;28;20039;-80
2022/05/02 00:06:09;;;;;;;13.32;11.27;;;;;;;;;;4994402;28;20050;-81
2022/05/02 00:08:36;;;;;;;16.65;9.07;;;;;;;;;;4980292;28;20051;-80
2022/05/02 00:11:04;;;;;;;13.38;11.70;;;;;;;;;;4997513;28;20027;-81
2022/05/02 00:13:31;;;;;;;33.63;10.77;;;;;;;;;;4980368;28;20057;-80
2022/05/02 00:15:59;;;;;;;11.25;9.90;;;;;;;;;;4996790;28;20042;-81
2022/05/02 00:18:28;;;;;;;10.82;9.80;;;;;;;;;;4980723;28;20066;-80
2022/05/02 00:20:55;;;;;;;12.15;10.05;;;;;;;;;;4986117;28;20246;-82
2022/05/02 00:23:23;;;;;;;10.90;9.90;;;;;;;;;;4990168;28;20481;-80
2022/05/02 00:25:50;;;;;;;11.20;9.52;;;;;;;;;;4981224;28;20053;-83
2022/05/02 00:28:17;;;;;;;10.85;9.75;;;;;;;;;;4980598;28;20098;-81
2022/05/02 00:30:45;;;;;;;9.50;8.70;;;;;;;;;;4962721;28;20050;-80
2022/05/02 00:33:12;;;;;;;9.00;8.30;;;;;;;;;;4979744;28;20057;-81
2022/05/02 00:35:39;;;;;;;7.88;7.20;;;;;;;;;;4961974;28;20070;-80
2022/05/02 00:38:07;;;;;;;8.07;7.47;;;;;;;;;;4979305;28;20126;-81
2022/05/02 00:40:36;;;;;;;8.13;7.50;;;;;;;;;;4980318;28;20054;-81
2022/05/02 00:43:03;;;;;;;6.40;5.97;;;;;;;;;;4979830;28;20071;-80
2022/05/02 00:45:36;;;;;;;5.53;5.13;;;;;;;;;;4962372;28;20051;-81
2022/05/02 00:48:04;;;;;;;6.72;6.22;;;;;;;;;;4979700;28;20047;-80
2022/05/02 00:50:34;;;;;;;7.70;7.13;;;;;;;;;;4978399;28;20482;-80
2022/05/02 00:53:04;;;;;;;9.25;8.15;;;;;;;;;;4962271;28;20394;-81
2022/05/02 00:55:32;;;;;;;8.25;7.55;;;;;;;;;;4979815;28;20409;-80
2022/05/02 00:58:00;;;;;;;8.10;7.30;;;;;;;;;;4980072;28;20039;-81
2022/05/02 01:00:31;;;;;;;8.20;7.40;;;;;;;;;;4978717;28;20121;-80
2022/05/02 01:02:59;;;;;;;8.27;7.68;;;;;;;;;;4979588;28;20412;-81
2022/05/02 01:05:27;;;;;;;8.13;7.43;;;;;;;;;;4962449;28;20414;-81
2022/05/02 01:07:55;;;;;;;7.50;6.90;;;;;;;;;;4979487;28;20114;-80
2022/05/02 01:10:23;;;;;;;19.40;7.95;;;;;;;;;;4979084;28;20054;-81
2022/05/02 01:12:52;;;;;;;7.47;6.88;;;;;;;;;;4961518;28;20058;-81
2022/05/02 01:15:19;;;;;;;7.18;6.57;;;;;;;;;;4962020;28;20599;-80
2022/05/02 01:17:47;;;;;;;7.65;6.65;;;;;;;;;;4979209;28;20413;-81
2022/05/02 01:20:15;;;;;;;7.63;7.00;;;;;;;;;;4978946;28;20038;-81
2022/05/02 01:22:45;;;;;;;5.85;5.45;;;;;;;;;;4979062;28;20564;-81
2022/05/02 01:25:13;;;;;;;8.10;7.40;;;;;;;;;;4960805;28;20046;-81
2022/05/02 01:27:40;;;;;;;8.27;7.57;;;;;;;;;;4978879;28;20050;-80
2022/05/02 01:30:08;;;;;;;7.25;6.70;;;;;;;;;;4978718;28;20043;-81
2022/05/02 01:32:35;;;;;;;6.00;5.60;;;;;;;;;;4961140;28;20095;-81
2022/05/02 01:35:02;;;;;;;5.55;5.15;;;;;;;;;;4962055;28;20109;-81
2022/05/02 01:37:30;;;;;;;5.97;5.47;;;;;;;;;;4962161;28;20547;-80
2022/05/02 01:39:57;;;;;;;5.85;5.45;;;;;;;;;;4978089;28;20035;-81
2022/05/02 01:42:25;;;;;;;6.57;5.97;;;;;;;;;;4977558;28;20142;-81
2022/05/02 01:44:52;;;;;;;6.63;6.13;;;;;;;;;;4980590;28;20078;-81
2022/05/02 01:47:19;;;;;;;7.10;6.60;;;;;;;;;;4979736;28;20042;-81
2022/05/02 01:49:47;;;;;;;6.38;5.88;;;;;;;;;;4973321;28;20049;-81
2022/05/02 01:52:14;;;;;;;5.90;5.50;;;;;;;;;;4977689;28;20051;-81
2022/05/02 01:54:42;;;;;;;7.80;7.20;;;;;;;;;;4962940;28;20141;-81
2022/05/02 01:57:09;;;;;;;9.05;8.25;;;;;;;;;;4978993;28;20074;-81
2022/05/02 01:59:36;;;;;;;8.70;7.90;;;;;;;;;;4962160;28;20115;-79
2022/05/02 02:02:04;;;;;;;10.18;9.35;;;;;;;;;;4959511;28;20045;-79
2022/05/02 02:07:18;;;;;;;8.00;7.20;;;;;;;;;;4961330;28;20451;-81
2022/05/02 02:09:45;;;;;;;16.20;8.18;;;;;;;;;;4980024;28;20489;-81
2022/05/02 02:12:13;;;;;;;9.50;7.95;;;;;;;;;;4979644;28;20050;-81
2022/05/02 02:14:40;;;;;;;8.55;7.70;;;;;;;;;;4978545;28;20292;-82
2022/05/02 02:17:07;;;;;;;8.05;7.45;;;;;;;;;;4978907;28;20058;-82
2022/05/02 02:19:35;;;;;;;8.15;7.55;;;;;;;;;;4979840;28;20114;-81
2022/05/02 02:22:17;;;;;;;8.15;7.45;;;;;;;;;;4956121;28;20035;-80
2022/05/02 02:24:46;;;;;;;8.60;6.25;;;;;;;;;;4972881;28;20112;-81
2022/05/02 02:27:15;;;;;;;6.38;5.88;;;;;;;;;;4977285;28;20049;-81
2022/05/02 02:29:42;;;;;;;7.32;6.65;;;;;;;;;;4962660;28;20046;-81
2022/05/02 02:32:09;;;;;;;8.23;7.50;;;;;;;;;;4978903;28;20061;-80
2022/05/02 02:34:37;;;;;;;5.90;5.40;;;;;;;;;;4946784;28;20080;-81
2022/05/02 02:37:04;;;;;;;6.65;6.15;;;;;;;;;;4961802;28;20050;-80
2022/05/02 02:39:32;;;;;;;6.75;6.18;;;;;;;;;;4980300;28;20047;-81
2022/05/02 02:41:59;;;;;;;7.55;6.95;;;;;;;;;;4980676;28;20035;-80
2022/05/02 02:44:27;;;;;;;7.75;7.15;;;;;;;;;;4967260;28;20046;-81
2022/05/02 02:46:54;;;;;;;9.23;8.30;;;;;;;;;;4961620;28;20051;-81
2022/05/02 02:49:21;;;;;;;7.20;6.60;;;;;;;;;;4982752;28;20070;-80
2022/05/02 02:51:49;;;;;;;7.03;6.43;;;;;;;;;;4982416;28;20055;-81
2022/05/02 02:54:16;;;;;;;8.20;7.43;;;;;;;;;;4983512;28;20057;-81
2022/05/02 02:56:43;;;;;;;9.35;8.55;;;;;;;;;;4988888;28;20098;-81
2022/05/02 02:59:11;;;;;;;8.18;7.47;;;;;;;;;;4982403;28;20046;-81
2022/05/02 03:01:38;;;;;;;10.13;7.75;;;;;;;;;;4998604;28;20078;-81
2022/05/02 03:06:53;;;;;;;11.15;9.07;;;;;;;;;;4998768;28;20026;-81
2022/05/02 03:09:21;;;;;;;9.80;8.90;;;;;;;;;;4985934;28;20427;-81
2022/05/02 03:11:48;;;;;;;9.88;8.80;;;;;;;;;;4983186;28;20071;-81
2022/05/02 03:14:15;;;;;;;10.55;9.65;;;;;;;;;;4958406;28;20043;-81
2022/05/02 03:16:43;;;;;;;9.95;9.10;;;;;;;;;;4973845;28;20556;-81
2022/05/02 03:19:10;;;;;;;11.65;10.10;;;;;;;;;;4978176;28;20130;-80
2022/05/02 03:21:38;;;;;;;19.27;9.48;;;;;;;;;;4992738;28;20519;-80
2022/05/02 03:24:06;;;;;;;17.23;9.40;;;;;;;;;;4981097;28;20043;-82
2022/05/02 03:26:33;;;;;;;11.10;10.10;;;;;;;;;;4954358;28;20118;-81
2022/05/02 03:29:01;;;;;;;10.82;9.80;;;;;;;;;;4971530;28;20066;-81
2022/05/02 03:31:28;;;;;;;10.63;9.63;;;;;;;;;;4953489;28;20043;-81
2022/05/02 03:33:56;;;;;;;11.20;10.10;;;;;;;;;;4971464;28;20050;-81
2022/05/02 03:36:23;;;;;;;13.98;10.43;;;;;;;;;;4972934;28;20555;-81
2022/05/02 03:38:51;;;;;;;8.45;7.68;;;;;;;;;;4957465;28;20208;-81
2022/05/02 03:41:18;;;;;;;11.45;10.45;;;;;;;;;;4975454;28;20038;-81
2022/05/02 03:43:45;;;;;;;10.50;9.52;;;;;;;;;;4957011;28;20042;-80
2022/05/02 03:46:15;;;;;;;10.75;9.85;;;;;;;;;;4954613;28;20095;-82
2022/05/02 03:48:45;;;;;;;11.63;9.00;;;;;;;;;;4968828;28;20047;-83
2022/05/02 03:51:12;;;;;;;10.70;9.68;;;;;;;;;;4972857;28;20046;-82
2022/05/02 03:53:43;;;;;;;10.32;9.43;;;;;;;;;;4974084;28;20047;-82
2022/05/02 03:56:10;;;;;;;17.55;8.07;;;;;;;;;;4958857;28;20106;-82
2022/05/02 03:58:37;;;;;;;8.27;7.50;;;;;;;;;;4973281;28;20485;-82
2022/05/02 04:01:05;;;;;;;8.75;7.95;;;;;;;;;;4971343;28;20042;-81
2022/05/02 04:03:35;;;;;;;9.90;8.95;;;;;;;;;;4955790;28;20039;-82
2022/05/02 04:06:02;;;;;;;12.32;9.93;;;;;;;;;;4971099;28;20040;-82
2022/05/02 04:08:38;;;;;;;10.93;9.93;;;;;;;;;;4968536;28;20049;-81
2022/05/02 04:11:11;;;;;;;15.18;10.20;;;;;;;;;;4947416;28;20066;-81
2022/05/02 04:13:38;;;;;;;11.70;10.50;;;;;;;;;;4978863;28;20054;-82
2022/05/02 04:16:06;;;;;;;10.45;9.55;;;;;;;;;;4953103;28;20152;-81
2022/05/02 04:18:33;;;;;;;11.07;10.07;;;;;;;;;;4970600;28;20483;-82
2022/05/02 04:21:00;;;;;;;11.30;10.10;;;;;;;;;;4969840;28;20073;-82
2022/05/02 04:23:28;;;;;;;11.45;10.32;;;;;;;;;;4949539;28;20049;-81
2022/05/02 04:25:55;;;;;;;12.07;10.93;;;;;;;;;;4968841;28;20050;-82
2022/05/02 04:28:22;;;;;;;11.73;10.63;;;;;;;;;;4952130;28;20152;-84
2022/05/02 04:30:50;;;;;;;11.25;10.20;;;;;;;;;;4964212;28;20121;-82
2022/05/02 04:33:19;;;;;;;12.68;11.38;;;;;;;;;;4968180;28;20423;-81
2022/05/02 04:35:46;;;;;;;12.05;10.85;;;;;;;;;;4969921;28;20038;-81
2022/05/02 04:38:15;;;;;;;11.77;10.73;;;;;;;;;;4972263;28;20134;-81
2022/05/02 04:40:43;;;;;;;11.48;10.25;;;;;;;;;;4958771;28;20039;-82
2022/05/02 04:43:13;;;;;;;12.25;11.20;;;;;;;;;;4957036;28;20126;-82
2022/05/02 04:45:41;;;;;;;11.85;10.65;;;;;;;;;;4973142;28;20703;-82
2022/05/02 04:48:10;;;;;;;11.07;10.07;;;;;;;;;;4969620;28;20047;-83
2022/05/02 04:50:38;;;;;;;11.63;10.63;;;;;;;;;;4972447;28;20134;-82
2022/05/02 04:53:05;;;;;;;12.40;10.27;;;;;;;;;;4940877;28;20055;-81
2022/05/02 04:55:33;;;;;;;11.02;10.13;;;;;;;;;;4954038;28;20043;-82
2022/05/02 04:58:00;;;;;;;10.45;9.45;;;;;;;;;;4954352;28;20067;-82
2022/05/02 05:00:28;;;;;;;10.18;9.35;;;;;;;;;;4975160;28;20050;-82
2022/05/02 05:02:55;;;;;;;10.68;9.77;;;;;;;;;;4972668;28;20050;-83
2022/05/02 05:05:28;;;;;;;10.40;9.50;;;;;;;;;;4971989;28;20129;-82
2022/05/02 05:07:55;;;;;;;10.88;9.90;;;;;;;;;;4952817;28;20050;-82
2022/05/02 05:10:22;;;;;;;11.88;10.88;;;;;;;;;;4968423;28;20047;-82
2022/05/02 05:13:05;;;;;;;11.30;10.20;;;;;;;;;;4965890;28;20042;-82
2022/05/02 05:18:28;;;;;;;10.25;9.25;;;;;;;;;;4954152;28;20114;-83
2022/05/02 05:20:56;;;;;;;11.18;10.07;;;;;;;;;;4953214;28;20035;-82
2022/05/02 05:23:57;;;;;;;10.82;9.82;;;;;;;;;;4967270;28;20046;-81
2022/05/02 05:26:46;;;;;;;9.38;8.57;;;;;;;;;;4987703;28;20057;-81
2022/05/02 05:29:21;;;;;;;9.45;8.60;;;;;;;;;;4997153;28;20137;-82
2022/05/02 05:31:57;;;;;;;9.68;8.88;;;;;;;;;;4967877;28;20295;-81
2022/05/02 05:34:25;;;;;;;11.45;10.05;;;;;;;;;;4977726;28;20061;-81
2022/05/02 05:37:11;;;;;;;10.50;9.55;;;;;;;;;;4959469;28;20073;-82
2022/05/02 05:39:44;;;;;;;9.90;8.98;;;;;;;;;;4978051;28;20134;-82
2022/05/02 05:42:23;;;;;;;10.18;9.27;;;;;;;;;;4979700;28;20061;-82
2022/05/02 05:44:50;;;;;;;12.82;9.25;;;;;;;;;;4972161;28;20031;-81
2022/05/02 05:47:29;;;;;;;9.10;8.35;;;;;;;;;;4995331;28;20033;-81
2022/05/02 05:50:08;;;;;;;9.48;8.68;;;;;;;;;;4992951;28;20082;-81
2022/05/02 05:52:55;;;;;;;8.50;7.80;;;;;;;;;;5014405;28;20110;-81
2022/05/02 05:55:27;;;;;;;8.85;8.15;;;;;;;;;;4993717;28;20212;-81
2022/05/02 05:58:13;;;;;;;8.93;7.90;;;;;;;;;;4978072;28;20111;-82
2022/05/02 06:00:44;;;;;;;8.77;7.97;;;;;;;;;;4972133;28;20066;-81
2022/05/02 06:03:14;;;;;;;8.63;7.87;;;;;;;;;;4969991;28;20150;-81
2022/05/02 06:05:43;;;;;;;8.38;7.68;;;;;;;;;;4977515;28;20035;-80
2022/05/02 06:08:16;;;;;;;8.40;7.60;;;;;;;;;;4974483;28;20559;-82
2022/05/02 06:10:44;;;;;;;12.27;9.40;;;;;;;;;;4968291;28;20045;-83
2022/05/02 06:13:13;;;;;;;9.88;9.07;;;;;;;;;;4946616;28;20053;-81
2022/05/02 06:18:48;;;;;;;9.45;8.65;;;;;;;;;;4941052;28;20179;-83
2022/05/02 06:21:20;;;;;;;7.75;7.15;;;;;;;;;;4974398;28;20122;-83
2022/05/02 06:23:52;;;;;;;10.02;9.20;;;;;;;;;;4972204;28;20098;-81
2022/05/02 06:26:23;;;;;;;10.50;9.60;;;;;;;;;;4973250;28;20054;-82
2022/05/02 06:28:52;;;;;;;9.30;8.57;;;;;;;;;;4971683;28;20113;-84
2022/05/02 06:31:20;;;;;;;9.57;8.73;;;;;;;;;;4939402;28;20050;-81
2022/05/02 06:33:51;;;;;;;9.02;8.32;;;;;;;;;;4936753;28;20085;-82
2022/05/02 06:36:39;;;;;;;9.73;8.80;;;;;;;;;;4972326;28;20039;-79
2022/05/02 06:39:11;;;;;;;9.73;8.93;;;;;;;;;;4971072;28;20406;-82
2022/05/02 06:41:41;;;;;;;8.80;8.00;;;;;;;;;;4970124;28;20035;-81
2022/05/02 06:44:28;;;;;;;9.35;8.48;;;;;;;;;;4966083;28;20053;-82
2022/05/02 06:46:57;;;;;;;8.95;8.25;;;;;;;;;;4969258;28;20387;-82
2022/05/02 06:49:25;;;;;;;10.10;9.05;;;;;;;;;;4957117;28;20078;-82
2022/05/02 06:51:55;;;;;;;9.52;8.82;;;;;;;;;;4967616;28;20047;-81
2022/05/02 06:54:30;;;;;;;9.63;8.82;;;;;;;;;;4972972;28;20058;-82
2022/05/02 06:57:16;;;;;;;9.15;8.35;;;;;;;;;;4970692;28;20161;-83
2022/05/02 07:00:02;;;;;;;9.32;8.52;;;;;;;;;;4971760;28;20042;-79
2022/05/02 07:02:30;;;;;;;9.30;8.60;;;;;;;;;;4969788;28;20049;-82
2022/05/02 07:04:57;;;;;;;9.13;8.32;;;;;;;;;;4940473;28;20406;-83
2022/05/02 07:07:42;;;;;;;9.20;8.50;;;;;;;;;;4971988;28;20035;-82
2022/05/02 07:10:14;;;;;;;8.60;7.90;;;;;;;;;;4952532;28;20506;-82
2022/05/02 07:12:49;;;;;;;8.95;8.15;;;;;;;;;;4941155;28;20053;-83
2022/05/02 07:15:36;;;;;;;8.23;7.53;;;;;;;;;;4965914;28;20544;-80
2022/05/02 07:18:08;;;;;;;8.32;7.63;;;;;;;;;;4962763;28;20066;-80
2022/05/02 07:20:35;;;;;;;9.07;8.23;;;;;;;;;;4969877;28;20078;-80
2022/05/02 07:23:15;;;;;;;8.70;7.97;;;;;;;;;;4963117;28;21376;-81
2022/05/02 07:25:44;;;;;;;8.50;7.80;;;;;;;;;;4965010;28;20071;-80
2022/05/02 07:28:19;;;;;;;7.95;7.35;;;;;;;;;;4969382;28;20039;-80
2022/05/02 07:30:48;;;;;;;8.73;8.02;;;;;;;;;;4950847;28;20069;-79
2022/05/02 07:33:16;;;;;;;9.88;8.77;;;;;;;;;;4965103;28;20043;-82
2022/05/02 07:35:44;;;;;;;10.55;8.32;;;;;;;;;;4938878;28;20137;-82
2022/05/02 07:38:14;;;;;;;9.13;8.23;;;;;;;;;;4953814;28;20047;-83
2022/05/02 07:41:22;;;;;;;7.90;7.30;;;;;;;;;;4970356;28;20042;-81
2022/05/02 07:43:31;;;;;;;7.57;6.97;;;;;;;;;;4968676;28;20591;-80
2022/05/02 07:45:59;;;;;;;13.45;7.93;;;;;;;;;;4968041;28;20040;-81
2022/05/02 07:48:26;;;;;;;8.85;8.00;;;;;;;;;;4962447;28;20400;-79
2022/05/02 07:50:57;;;;;;;8.02;7.22;;;;;;;;;;4965719;28;20469;-80
2022/05/02 07:53:26;;;;;;;8.18;7.55;;;;;;;;;;4965085;28;20493;-81
2022/05/02 07:55:55;;;;;;;8.82;7.90;;;;;;;;;;4965807;28;20115;-81
2022/05/02 07:58:25;;;;;;;9.48;8.75;;;;;;;;;;4966996;28;20039;-81
2022/05/02 08:00:53;;;;;;;8.50;7.80;;;;;;;;;;4954341;28;20078;-82
2022/05/02 08:03:24;;;;;;;6.38;5.88;;;;;;;;;;4971989;28;20043;-80
2022/05/02 08:05:57;;;;;;;8.73;5.82;;;;;;;;;;4953539;28;20053;-81
2022/05/02 08:08:31;;;;;;;7.15;6.57;;;;;;;;;;4968980;28;20038;-80
2022/05/02 08:10:59;;;;;;;6.68;6.18;;;;;;;;;;4938445;28;20039;-80
2022/05/02 08:13:37;;;;;;;8.18;7.32;;;;;;;;;;4954003;28;20039;-81
2022/05/02 08:16:11;;;;;;;7.78;6.80;;;;;;;;;;4969806;28;20338;-80
2022/05/02 08:19:05;;;;;;;5.97;5.57;;;;;;;;;;4974157;28;20232;-81
2022/05/02 08:21:44;;;;;;;6.00;5.60;;;;;;;;;;4971172;28;20093;-83
2022/05/02 08:27:22;;;;;;;5.38;5.03;;;;;;;;;;4974395;28;20460;-81
2022/05/02 08:29:57;;;;;;;4.50;4.20;;;;;;;;;;4976663;28;20137;-80
2022/05/02 08:32:34;;;;;;;5.70;5.30;;;;;;;;;;4985480;28;20102;-81
2022/05/02 08:35:10;;;;;;;5.95;5.53;;;;;;;;;;4990345;28;20090;-83
2022/05/02 08:37:41;;;;;;;6.15;5.55;;;;;;;;;;4985661;28;20045;-83
2022/05/02 08:40:34;;;;;;;4.75;4.35;;;;;;;;;;4985511;28;20039;-81
2022/05/02 08:43:27;;;;;;;5.32;4.90;;;;;;;;;;4972284;28;20061;-81
2022/05/02 08:46:04;;;;;;;5.72;5.22;;;;;;;;;;4937747;28;20054;-80
2022/05/02 08:49:32;;;;;;;6.70;5.22;;;;;;;;;;4942144;28;20050;-81
2022/05/02 08:52:00;;;;;;;5.82;5.15;;;;;;;;;;4969365;28;20069;-82
2022/05/02 08:54:40;;;;;;;5.50;5.10;;;;;;;;;;4971388;28;20077;-79
2022/05/02 08:57:08;;;;;;;5.32;4.90;;;;;;;;;;4955613;28;20612;-80
2022/05/02 08:59:57;;;;;;;4.85;4.40;;;;;;;;;;4971044;28;20063;-81
2022/05/02 09:02:55;;;;;;;5.68;5.18;;;;;;;;;;4970998;28;20034;-80
2022/05/02 09:05:41;;;;;;;6.05;4.78;;;;;;;;;;4952003;28;20043;-80
2022/05/02 09:08:27;;;;;;;4.80;4.40;;;;;;;;;;4949531;28;20462;-81
2022/05/02 09:10:55;;;;;;;5.75;4.38;;;;;;;;;;4972976;28;20057;-81
2022/05/02 09:13:38;;;;;;;4.30;4.00;;;;;;;;;;4971776;28;20042;-81
2022/05/02 09:16:11;;;;;;;4.38;4.07;;;;;;;;;;4954369;28;20042;-81
2022/05/02 09:18:56;;;;;;;4.60;4.20;;;;;;;;;;4951901;29;20052;-80
2022/05/02 09:21:33;;;;;;;4.22;3.80;;;;;;;;;;4972450;28;20093;-80
2022/05/02 09:24:20;;;;;;;5.07;4.40;;;;;;;;;;4972291;28;20107;-81
2022/05/02 09:26:57;;;;;;;4.53;3.92;;;;;;;;;;4973292;28;20038;-81
2022/05/02 09:29:45;;;;;;;4.03;3.72;;;;;;;;;;4975662;28;20093;-82
2022/05/02 09:32:31;;;;;;;4.15;3.60;;;;;;;;;;4973553;28;20468;-84
2022/05/02 09:35:03;;;;;;;3.95;3.55;;;;;;;;;;4972345;28;20098;-81
2022/05/02 09:37:54;;;;;;;4.00;3.70;;;;;;;;;;4973774;28;20584;-80
2022/05/02 09:40:28;;;;;;;5.50;3.72;;;;;;;;;;4957848;28;20039;-82
2022/05/02 09:43:03;;;;;;;4.97;4.57;;;;;;;;;;4967192;28;20164;-82
2022/05/02 09:51:41;;;;;;;4.93;4.47;;;;;;;;;;4971004;28;20035;-80
2022/05/02 09:57:17;;;;;;;5.10;4.80;;;;;;;;;;4974661;28;20121;-80
2022/05/02 09:59:48;;;;;;;4.40;4.10;;;;;;;;;;4949645;29;20039;-80
2022/05/02 10:02:18;;;;;;;4.80;4.40;;;;;;;;;;4973334;28;20043;-80
2022/05/02 10:05:05;;;;;;;3.50;3.20;;;;;;;;;;4970426;28;20131;-81
2022/05/02 10:08:02;;;;;;;6.95;4.00;;;;;;;;;;4974289;28;20425;-81
2022/05/02 10:10:39;;;;;;;3.22;2.92;;;;;;;;;;4956289;28;20498;-80
2022/05/02 10:13:12;;;;;;;2.35;2.25;;;;;;;;;;4972391;28;20118;-83
2022/05/02 10:15:40;;;;;;;4.10;3.70;;;;;;;;;;4967978;28;20341;-80
2022/05/02 10:18:20;;;;;;;2.67;2.47;;;;;;;;;;4960048;28;20134;-79
2022/05/02 10:20:57;;;;;;;2.75;2.55;;;;;;;;;;4968076;28;20039;-80
2022/05/02 10:23:34;;;;;;;3.33;3.10;;;;;;;;;;4984603;28;20035;-80
2022/05/02 10:26:09;;;;;;;2.88;2.70;;;;;;;;;;4957485;28;20035;-79
2022/05/02 10:28:48;;;;;;;3.03;2.83;;;;;;;;;;4966410;28;20051;-79
2022/05/02 10:31:20;;;;;;;2.97;2.78;;;;;;;;;;4967848;28;20126;-80
2022/05/02 10:33:52;;;;;;;3.30;2.97;;;;;;;;;;4948163;28;20106;-79
2022/05/02 10:36:22;;;;;;;3.53;2.90;;;;;;;;;;4974709;28;20137;-80
2022/05/02 10:38:54;;;;;;;2.70;2.55;;;;;;;;;;4970261;28;20053;-79
2022/05/02 10:41:28;;;;;;;2.70;2.55;;;;;;;;;;4955693;28;20073;-81
2022/05/02 10:44:04;;;;;;;3.00;2.80;;;;;;;;;;4970170;28;20517;-79
2022/05/02 10:46:31;;;;;;;2.80;2.60;;;;;;;;;;4967421;28;20115;-80
2022/05/02 10:49:04;;;;;;;2.90;2.70;;;;;;;;;;4952517;28;20039;-80
2022/05/02 10:51:46;;;;;;;3.17;2.97;;;;;;;;;;4972696;28;20054;-80
2022/05/02 10:54:33;;;;;;;4.25;2.80;;;;;;;;;;4972368;28;20057;-80
2022/05/02 10:57:05;;;;;;;2.85;2.65;;;;;;;;;;4951291;28;20075;-80
2022/05/02 10:59:38;;;;;;;3.35;3.10;;;;;;;;;;4974630;28;20043;-79
2022/05/02 11:02:18;;;;;;;2.60;2.40;;;;;;;;;;4955216;28;20120;-81
2022/05/02 11:05:05;;;;;;;3.97;2.60;;;;;;;;;;4959778;28;20039;-81
2022/05/02 11:07:55;;;;;;;3.38;2.58;;;;;;;;;;4958405;28;20047;-81
2022/05/02 11:10:28;;;;;;;3.47;2.60;;;;;;;;;;4978255;28;20078;-79
2022/05/02 11:13:07;;;;;;;3.00;2.80;;;;;;;;;;4971231;28;20051;-81
2022/05/02 11:15:53;;;;;;;5.55;2.53;;;;;;;;;;4988634;28;20515;-82
2022/05/02 11:21:41;;;;;;;4.05;2.53;;;;;;;;;;4988314;28;20043;-81
2022/05/02 11:24:15;;;;;;;2.00;1.90;;;;;;;;;;4978476;28;20614;-81
2022/05/02 11:26:45;;;;;;;3.10;2.33;;;;;;;;;;4985220;28;20053;-81
2022/05/02 11:29:31;;;;;;;2.80;2.17;;;;;;;;;;4970343;28;20044;-81
2022/05/02 11:32:03;;;;;;;3.13;2.03;;;;;;;;;;4972738;28;20070;-82
2022/05/02 11:34:57;;;;;;;1.60;1.50;;;;;;;;;;4973903;28;20050;-82
2022/05/02 11:37:32;;;;;;;1.90;1.80;;;;;;;;;;4974813;28;20048;-82
2022/05/02 11:40:07;;;;;;;1.98;1.88;;;;;;;;;;4960363;28;20054;-81
2022/05/02 11:42:35;;;;;;;2.00;1.90;;;;;;;;;;4961625;28;20058;-81
2022/05/02 11:45:05;;;;;;;2.30;2.10;;;;;;;;;;4987217;28;20055;-81
2022/05/02 11:47:41;;;;;;;3.10;2.90;;;;;;;;;;4974959;28;20043;-82
2022/05/02 11:50:10;;;;;;;6.50;3.03;;;;;;;;;;4977487;28;20082;-82
2022/05/02 11:52:44;;;;;;;2.75;2.60;;;;;;;;;;4977212;28;20061;-82
2022/05/02 11:55:11;;;;;;;2.78;2.53;;;;;;;;;;4972073;28;20054;-83
2022/05/02 11:57:42;;;;;;;5.00;3.00;;;;;;;;;;4981330;28;20046;-82
2022/05/02 12:00:11;;;;;;;3.22;2.78;;;;;;;;;;4978537;28;20039;-82
2022/05/02 12:02:39;;;;;;;2.60;2.40;;;;;;;;;;4960050;28;20141;-83
2022/05/02 12:05:27;;;;;;;2.97;2.05;;;;;;;;;;4979315;28;20126;-82
2022/05/02 12:08:00;;;;;;;2.38;2.17;;;;;;;;;;4977964;28;20066;-82
2022/05/02 12:10:33;;;;;;;2.63;2.42;;;;;;;;;;4966927;28;20435;-81
2022/05/02 12:13:03;;;;;;;2.90;2.70;;;;;;;;;;4962364;28;20051;-82
2022/05/02 12:15:31;;;;;;;3.03;2.17;;;;;;;;;;4974683;28;20042;-82
2022/05/02 12:18:03;;;;;;;2.53;2.33;;;;;;;;;;4978861;28;20042;-81
2022/05/02 12:20:32;;;;;;;2.53;2.33;;;;;;;;;;4944091;28;20129;-81
2022/05/02 12:23:05;;;;;;;3.40;2.53;;;;;;;;;;4978529;28;20038;-82
2022/05/02 12:25:33;;;;;;;3.17;2.97;;;;;;;;;;4981555;28;20104;-83
2022/05/02 12:28:04;;;;;;;3.30;3.10;;;;;;;;;;4982685;28;20053;-82
2022/05/02 12:30:32;;;;;;;4.53;3.00;;;;;;;;;;5000215;28;20070;-82
2022/05/02 12:33:05;;;;;;;6.35;2.33;;;;;;;;;;4982805;28;20049;-81
2022/05/02 12:35:38;;;;;;;3.05;2.85;;;;;;;;;;4998362;28;20046;-82
2022/05/02 12:38:14;;;;;;;2.72;2.53;;;;;;;;;;4983039;28;20114;-83
2022/05/02 12:40:41;;;;;;;3.03;2.72;;;;;;;;;;4995540;28;20058;-84
2022/05/02 12:43:10;;;;;;;3.25;2.80;;;;;;;;;;4963017;28;20042;-81
2022/05/02 12:45:46;;;;;;;2.42;2.33;;;;;;;;;;4963719;28;20077;-81
2022/05/02 12:48:34;;;;;;;2.03;1.92;;;;;;;;;;4981001;28;20046;-82
2022/05/02 12:51:01;;;;;;;1.90;1.80;;;;;;;;;;4978105;28;20039;-80
2022/05/02 12:56:15;;;;;;;2.38;2.17;;;;;;;;;;4982006;28;20331;-81
2022/05/02 13:01:41;;;;;;;2.60;2.00;;;;;;;;;;4971215;28;20047;-80
2022/05/02 13:04:19;;;;;;;2.10;2.00;;;;;;;;;;4966710;28;20067;-82
2022/05/02 13:06:49;;;;;;;2.00;1.90;;;;;;;;;;4967852;28;20121;-81
2022/05/02 13:09:21;;;;;;;2.47;2.28;;;;;;;;;;4951861;28;20441;-81
2022/05/02 13:11:49;;;;;;;1.90;1.80;;;;;;;;;;4974022;28;20058;-80
2022/05/02 13:14:26;;;;;;;2.70;2.60;;;;;;;;;;4958841;28;20054;-81
2022/05/02 13:16:53;;;;;;;2.35;2.00;;;;;;;;;;4967721;28;20078;-82
2022/05/02 13:19:42;;;;;;;2.22;2.13;;;;;;;;;;4970873;28;20051;-79
2022/05/02 13:22:10;;;;;;;2.40;2.20;;;;;;;;;;4955508;28;20043;-82
2022/05/02 13:24:50;;;;;;;4.35;1.90;;;;;;;;;;4968941;28;20047;-83
2022/05/02 13:27:24;;;;;;;2.42;2.22;;;;;;;;;;4954576;28;20579;-83
2022/05/02 13:29:57;;;;;;;1.65;1.50;;;;;;;;;;4977238;28;20043;-83
2022/05/02 13:32:26;;;;;;;1.50;1.45;;;;;;;;;;4966482;28;20440;-83
2022/05/02 13:35:01;;;;;;;2.03;1.90;;;;;;;;;;4973984;28;20062;-83
2022/05/02 13:37:35;;;;;;;2.92;1.52;;;;;;;;;;4977825;28;20046;-82
2022/05/02 13:40:02;;;;;;;1.70;1.60;;;;;;;;;;4957080;28;20050;-82
2022/05/02 13:42:39;;;;;;;1.55;1.55;;;;;;;;;;4975620;28;20043;-82
2022/05/02 13:45:16;;;;;;;3.13;1.70;;;;;;;;;;4942188;28;20657;-81
2022/05/02 13:47:48;;;;;;;1.98;1.88;;;;;;;;;;4946161;28;20117;-82
2022/05/02 13:50:21;;;;;;;1.52;1.45;;;;;;;;;;4983975;28;20066;-81
2022/05/02 13:53:03;;;;;;;1.85;1.70;;;;;;;;;;4956078;28;20054;-81
2022/05/02 13:55:56;;;;;;;2.58;1.63;;;;;;;;;;4984343;28;20059;-82
2022/05/02 13:58:41;;;;;;;1.58;1.52;;;;;;;;;;4983741;28;20302;-82
2022/05/02 14:01:28;;;;;;;1.40;1.30;;;;;;;;;;4976539;28;20038;-81
2022/05/02 14:04:02;;;;;;;2.30;1.70;;;;;;;;;;4961543;28;20372;-83
2022/05/02 14:06:43;;;;;;;1.65;1.55;;;;;;;;;;4974541;28;20046;-81
2022/05/02 14:09:28;;;;;;;1.50;1.40;;;;;;;;;;4954127;28;20165;-83
2022/05/02 14:11:56;;;;;;;1.55;1.52;;;;;;;;;;4941644;28;20385;-82
2022/05/02 14:14:26;;;;;;;1.60;1.60;;;;;;;;;;4974370;28;20043;-82
2022/05/02 14:16:55;;;;;;;1.75;1.65;;;;;;;;;;4971773;28;20074;-81
2022/05/02 14:19:25;;;;;;;1.58;1.48;;;;;;;;;;4974320;28;20043;-80
2022/05/02 14:21:52;;;;;;;1.70;1.60;;;;;;;;;;4975312;28;20160;-79
2022/05/02 14:24:22;;;;;;;1.80;1.70;;;;;;;;;;4978841;28;20047;-80
2022/05/02 14:26:56;;;;;;;1.88;1.77;;;;;;;;;;4964407;28;20106;-82
2022/05/02 14:29:29;;;;;;;1.85;1.75;;;;;;;;;;4944058;28;20070;-80
2022/05/02 14:32:04;;;;;;;3.42;1.75;;;;;;;;;;4950367;28;20050;-84
2022/05/02 14:34:43;;;;;;;2.60;1.80;;;;;;;;;;4969860;28;20053;-84
2022/05/02 14:37:11;;;;;;;2.28;1.95;;;;;;;;;;4968169;28;20429;-85
2022/05/02 14:39:42;;;;;;;2.28;1.70;;;;;;;;;;4938671;28;20304;-84
2022/05/02 14:42:10;;;;;;;1.73;1.63;;;;;;;;;;4955870;28;20583;-83
2022/05/02 14:44:38;;;;;;;1.67;1.58;;;;;;;;;;4962448;28;20468;-86
2022/05/02 14:47:06;;;;;;;2.00;1.90;;;;;;;;;;4974729;28;20046;-83
2022/05/02 14:49:34;;;;;;;1.88;1.77;;;;;;;;;;4976912;28;20050;-83
2022/05/02 14:52:06;;;;;;;2.10;2.00;;;;;;;;;;4941956;28;20042;-83
2022/05/02 14:54:35;;;;;;;2.50;1.73;;;;;;;;;;4961443;28;20047;-85
2022/05/02 14:57:05;;;;;;;2.72;1.52;;;;;;;;;;4942319;28;20066;-84
2022/05/02 14:59:35;;;;;;;1.98;1.75;;;;;;;;;;4940366;28;20118;-84
2022/05/02 15:02:04;;;;;;;1.70;1.60;;;;;;;;;;4974801;28;20425;-82
2022/05/02 15:04:39;;;;;;;1.90;1.80;;;;;;;;;;4975465;28;20058;-82
2022/05/02 15:07:09;;;;;;;2.40;1.63;;;;;;;;;;4977326;28;20046;-85
2022/05/02 15:12:38;;;;;;;1.63;1.52;;;;;;;;;;4956414;28;20077;-82
2022/05/02 15:15:24;;;;;;;1.77;1.67;;;;;;;;;;4976985;28;20129;-83
2022/05/02 15:18:16;;;;;;;1.95;1.85;;;;;;;;;;4972550;28;20054;-80
2022/05/02 15:20:47;;;;;;;2.20;1.60;;;;;;;;;;4943563;28;20062;-84
2022/05/02 15:23:15;;;;;;;1.45;1.42;;;;;;;;;;4951320;28;20121;-82
2022/05/02 15:25:50;;;;;;;1.55;1.45;;;;;;;;;;4957599;28;20494;-84
2022/05/02 15:36:54;;;;;;;1.83;1.73;;;;;;;;;;4967738;28;20042;-81
2022/05/02 15:39:22;;;;;;;2.50;1.67;;;;;;;;;;4952617;28;20045;-84
2022/05/02 15:41:49;;;;;;;1.73;1.63;;;;;;;;;;4973622;28;20071;-84
2022/05/02 15:44:19;;;;;;;1.80;1.70;;;;;;;;;;4954196;28;20043;-81
2022/05/02 15:46:49;;;;;;;1.60;1.50;;;;;;;;;;4969654;28;20509;-84
2022/05/02 15:49:18;;;;;;;1.70;1.60;;;;;;;;;;4974899;28;20096;-82
2022/05/02 15:51:46;;;;;;;1.55;1.45;;;;;;;;;;4969282;28;20129;-84
2022/05/02 15:54:23;;;;;;;1.63;1.52;;;;;;;;;;4968597;28;20101;-84